createdAt,value
2023-04-15T00:00:28.050Z,4.9614
2023-04-15T00:01:28.607Z,5.2037
2023-04-15T00:02:29.258Z,2.8099
2023-04-15T00:03:30.087Z,3.1004
2023-04-15T00:04:30.983Z,3.2629
2023-04-15T00:05:31.538Z,5.6730
2023-04-15T00:06:32.100Z,5.4383
2023-04-15T00:07:32.637Z,4.3632
2023-04-15T00:08:33.198Z,3.6490
2023-04-15T00:09:34.308Z,3.5121
2023-04-15T00:10:34.833Z,3.3917
2023-04-15T00:11:35.366Z,1.2555
2023-04-15T00:12:36.064Z,2.0333
2023-04-15T00:13:36.569Z,1.0741
2023-04-15T00:14:37.147Z,0.6579
2023-04-15T00:15:37.714Z,0.9562
2023-04-15T00:16:38.318Z,0.2391
2023-04-15T00:17:38.905Z,1.4941
2023-04-15T00:18:39.466Z,2.5665
2023-04-15T00:19:40.294Z,2.4432
2023-04-15T00:20:40.814Z,0.6574
2023-04-15T00:21:41.333Z,0.0000
2023-04-15T00:22:41.891Z,0.4184
2023-04-15T00:23:42.446Z,0.3588
2023-04-15T00:24:43.256Z,0.0000
2023-04-15T00:25:43.851Z,0.0000
2023-04-15T00:26:44.375Z,0.0000
2023-04-15T00:27:44.945Z,0.0000
2023-04-15T00:28:45.514Z,0.0000
2023-04-15T00:29:46.311Z,0.0000
2023-04-15T00:30:46.944Z,0.0000
2023-04-15T00:31:47.471Z,0.0000
2023-04-15T00:32:48.086Z,0.0000
2023-04-15T00:33:48.624Z,0.0000
2023-04-15T00:34:49.156Z,0.0000
2023-04-15T00:35:49.681Z,0.0000
2023-04-15T00:36:50.248Z,0.0000
2023-04-15T00:37:50.806Z,0.0000
2023-04-15T00:38:51.388Z,0.0000
2023-04-15T00:39:52.012Z,0.0000
2023-04-15T00:40:52.558Z,0.1195
2023-04-15T00:41:53.129Z,0.1793
2023-04-15T00:42:53.666Z,0.7772
2023-04-15T00:43:54.212Z,1.4354
2023-04-15T00:44:54.781Z,2.2121
2023-04-15T00:45:55.440Z,2.8698
2023-04-15T00:46:56.315Z,2.0887
2023-04-15T00:47:56.934Z,1.5464
2023-04-15T00:48:57.836Z,1.8427
2023-04-15T00:49:58.406Z,1.9107
2023-04-15T00:50:58.973Z,0.6576
2023-04-15T00:51:59.728Z,0.2383
2023-04-15T00:53:00.313Z,1.1359
2023-04-15T00:54:00.850Z,0.2988
2023-04-15T00:55:01.445Z,0.8367
2023-04-15T00:56:02.011Z,1.0765
2023-04-15T00:57:02.667Z,2.2664
2023-04-15T00:59:06.310Z,0.8964
2023-04-15T01:00:06.921Z,0.5369
2023-04-15T01:01:09.115Z,0.8169
2023-04-15T01:02:09.749Z,1.4306
2023-04-15T01:07:13.785Z,0.5838
2023-04-15T01:10:53.283Z,3.2504
2023-04-15T01:11:47.022Z,1.7097
2023-04-15T01:12:47.577Z,1.0755
2023-04-15T01:13:48.294Z,1.4350
2023-04-15T01:14:48.382Z,1.4415
2023-04-15T01:15:49.021Z,0.0000
2023-04-15T01:16:49.829Z,0.0000
2023-04-15T01:17:50.414Z,0.0000
2023-04-15T01:18:50.947Z,0.0000
2023-04-15T01:19:51.501Z,0.0000
2023-04-15T01:20:52.034Z,0.0000
2023-04-15T01:21:52.697Z,0.0000
2023-04-15T01:22:53.180Z,0.0000
2023-04-15T01:23:53.734Z,0.0000
2023-04-15T01:24:54.473Z,0.0000
2023-04-15T01:25:55.019Z,0.0000
2023-04-15T01:26:55.604Z,0.0000
2023-04-15T01:28:10.865Z,0.0000
2023-04-15T01:28:57.291Z,0.0000
2023-04-15T01:29:57.891Z,0.0000
2023-04-15T01:30:58.391Z,0.2390
2023-04-15T01:31:59.052Z,0.4186
2023-04-15T01:32:59.640Z,1.3735
2023-04-15T01:34:00.207Z,0.1793
2023-04-15T01:35:00.717Z,1.4348
2023-04-15T01:36:01.249Z,3.0490
2023-04-15T01:37:01.881Z,4.2427
2023-04-15T01:38:02.461Z,1.4940
2023-04-15T01:39:03.099Z,1.4949
2023-04-15T01:40:03.727Z,1.7278
2023-04-15T01:41:04.301Z,0.1196
2023-04-15T01:42:04.827Z,0.0598
2023-04-15T01:43:05.398Z,0.0598
2023-04-15T01:44:05.929Z,0.0000
2023-04-15T01:45:06.468Z,0.0000
2023-04-15T01:46:06.998Z,0.0000
2023-04-15T01:47:07.546Z,0.0000
2023-04-15T01:48:08.138Z,0.0000
2023-04-15T01:49:08.937Z,0.0000
2023-04-15T01:50:09.462Z,0.0000
2023-04-15T01:51:10.043Z,0.0000
2023-04-15T01:52:10.583Z,0.0000
2023-04-15T01:53:11.154Z,0.0000
2023-04-15T01:54:12.300Z,0.0000
2023-04-15T01:55:12.858Z,0.0000
2023-04-15T01:56:15.283Z,0.0000
2023-04-15T01:57:15.104Z,0.0000
2023-04-15T01:58:15.592Z,0.0000
2023-04-15T01:59:16.326Z,0.0000
2023-04-15T02:00:16.844Z,0.0000
2023-04-15T02:01:17.431Z,0.0000
2023-04-15T02:02:17.987Z,0.5378
2023-04-15T02:03:18.640Z,0.3589
2023-04-15T02:04:20.768Z,0.0581
2023-04-15T02:05:24.807Z,1.9216
2023-04-15T02:06:25.359Z,0.5983
2023-04-15T02:07:25.884Z,1.1362
2023-04-15T02:08:26.420Z,3.1097
2023-04-15T02:09:26.965Z,1.3154
2023-04-15T02:10:27.539Z,1.5539
2023-04-15T02:11:28.301Z,1.7874
2023-04-15T02:12:28.809Z,0.6580
2023-04-15T02:13:29.356Z,0.0598
2023-04-15T02:14:29.858Z,0.1794
2023-04-15T02:15:30.381Z,0.3590
2023-04-15T02:16:30.983Z,1.0165
2023-04-15T02:17:31.526Z,0.6579
2023-04-15T02:18:32.032Z,0.8366
2023-04-15T02:19:32.556Z,2.7518
2023-04-15T02:20:33.089Z,0.9570
2023-04-15T02:21:34.258Z,0.0000
2023-04-15T02:22:34.877Z,0.7765
2023-04-15T02:23:35.438Z,1.1953
2023-04-15T02:24:35.931Z,3.0496
2023-04-15T02:25:36.453Z,3.1102
2023-04-15T02:26:37.013Z,2.8719
2023-04-15T02:27:37.546Z,4.3060
2023-04-15T02:28:38.077Z,2.5109
2023-04-15T02:29:38.665Z,5.2017
2023-04-15T02:30:39.195Z,4.4846
2023-04-15T02:31:40.015Z,6.3103
2023-04-15T02:32:40.594Z,5.0814
2023-04-15T02:33:41.105Z,4.9608
2023-04-15T02:34:41.660Z,3.3500
2023-04-15T02:35:42.233Z,4.3628
2023-04-15T02:36:42.807Z,5.6193
2023-04-15T02:37:43.434Z,4.6635
2023-04-15T02:38:44.055Z,6.3790
2023-04-15T02:39:44.582Z,5.3817
2023-04-15T02:40:45.142Z,8.2534
2023-04-15T02:41:45.977Z,7.4328
2023-04-15T02:42:46.581Z,6.1595
2023-04-15T02:43:47.112Z,6.7560
2023-04-15T02:44:47.680Z,6.5161
2023-04-15T02:45:48.398Z,4.1257
2023-04-15T02:46:49.094Z,4.9970
2023-04-15T02:47:49.707Z,5.0215
2023-04-15T02:48:50.485Z,4.6406
2023-04-15T02:49:51.002Z,0.7774
2023-04-15T02:50:52.048Z,5.3830
2023-04-15T02:51:52.857Z,3.4260
2023-04-15T02:52:53.385Z,3.4671
2023-04-15T02:53:53.973Z,3.0489
2023-04-15T02:54:54.530Z,0.9562
2023-04-15T02:55:55.065Z,1.3755
2023-04-15T02:56:55.814Z,0.9532
2023-04-15T02:57:56.365Z,0.8369
2023-04-15T02:58:56.960Z,2.6303
2023-04-15T02:59:57.454Z,0.8969
2023-04-15T03:00:57.998Z,4.2479
2023-04-15T03:01:58.549Z,3.5271
2023-04-15T03:02:59.215Z,2.9306
2023-04-15T03:03:59.904Z,2.3233
2023-04-15T03:05:00.425Z,4.4200
2023-04-15T03:06:00.943Z,5.2658
2023-04-15T03:07:01.487Z,2.2121
2023-04-15T03:08:02.032Z,3.4701
2023-04-15T03:09:02.731Z,0.5381
2023-04-15T03:10:03.324Z,3.5139
2023-04-15T03:11:03.895Z,4.5460
2023-04-15T03:12:04.421Z,3.2883
2023-04-15T03:13:04.986Z,1.2561
2023-04-15T03:14:05.547Z,0.9559
2023-04-15T03:15:06.083Z,2.5124
2023-04-15T03:16:06.718Z,2.9893
2023-04-15T03:17:07.275Z,3.1039
2023-04-15T03:18:07.928Z,4.6049
2023-04-15T03:19:08.484Z,4.4157
2023-04-15T03:20:09.061Z,3.5276
2023-04-15T03:21:09.563Z,4.0655
2023-04-15T03:22:10.122Z,4.8437
2023-04-15T03:23:10.650Z,2.9302
2023-04-15T03:24:11.219Z,3.8271
2023-04-15T03:25:11.748Z,6.1562
2023-04-15T03:26:12.300Z,4.7852
2023-04-15T03:27:12.804Z,4.7241
2023-04-15T03:28:13.345Z,4.8452
2023-04-15T03:29:15.424Z,5.1308
2023-04-15T03:30:15.935Z,5.1453
2023-04-15T03:31:16.828Z,5.5347
2023-04-15T03:32:17.339Z,5.0205
2023-04-15T03:33:17.890Z,4.7258
2023-04-15T03:34:18.442Z,2.4506
2023-04-15T03:35:19.012Z,3.4681
2023-04-15T03:36:19.541Z,2.6903
2023-04-15T03:37:20.054Z,0.0000
2023-04-15T03:38:20.621Z,1.0169
2023-04-15T03:39:21.174Z,2.2120
2023-04-15T03:40:21.706Z,2.5711
2023-04-15T03:41:22.500Z,1.3706
2023-04-15T03:42:23.003Z,2.2714
2023-04-15T03:43:23.574Z,3.1684
2023-04-15T03:44:24.129Z,3.1093
2023-04-15T03:45:24.690Z,1.9730
2023-04-15T03:46:25.487Z,2.0848
2023-04-15T03:47:25.991Z,2.9300
2023-04-15T03:48:26.516Z,0.3589
2023-04-15T03:49:27.076Z,3.2302
2023-04-15T03:50:27.593Z,4.3627
2023-04-15T03:51:28.135Z,5.2037
2023-04-15T03:52:28.697Z,3.7666
2023-04-15T03:53:29.288Z,2.4506
2023-04-15T03:54:29.833Z,4.0044
2023-04-15T03:55:30.361Z,3.2890
2023-04-15T03:56:31.126Z,2.9202
2023-04-15T03:57:31.692Z,3.2876
2023-04-15T03:58:32.282Z,2.9887
2023-04-15T03:59:32.850Z,2.7497
2023-04-15T04:00:33.401Z,2.3904
2023-04-15T04:01:34.021Z,1.9724
2023-04-15T04:02:34.612Z,1.7336
2023-04-15T04:03:35.357Z,3.5774
2023-04-15T04:04:36.056Z,4.4666
2023-04-15T04:05:36.572Z,3.5287
2023-04-15T04:06:37.109Z,3.5277
2023-04-15T04:07:37.652Z,2.8705
2023-04-15T04:08:38.283Z,3.5852
2023-04-15T04:09:38.809Z,3.6468
2023-04-15T04:10:39.402Z,3.4071
2023-04-15T04:11:40.262Z,1.2488
2023-04-15T04:12:40.769Z,3.5269
2023-04-15T04:13:41.394Z,2.9901
2023-04-15T04:14:41.934Z,3.8243
2023-04-15T04:15:42.480Z,5.2012
2023-04-15T04:16:44.886Z,5.4004
2023-04-15T04:17:45.406Z,5.0784
2023-04-15T04:18:45.984Z,5.5037
2023-04-15T04:19:46.554Z,5.4950
2023-04-15T04:20:47.102Z,4.5438
2023-04-15T04:21:47.872Z,2.7407
2023-04-15T04:22:48.427Z,4.4846
2023-04-15T04:23:49.017Z,4.5441
2023-04-15T04:24:49.538Z,4.9587
2023-04-15T04:25:50.076Z,3.7083
2023-04-15T04:26:50.609Z,4.4246
2023-04-15T04:27:51.172Z,4.6046
2023-04-15T04:28:51.918Z,2.6819
2023-04-15T04:29:52.478Z,0.4783
2023-04-15T04:30:52.997Z,4.3057
2023-04-15T04:31:53.630Z,3.4671
2023-04-15T04:32:54.191Z,4.4185
2023-04-15T04:33:54.718Z,3.7082
2023-04-15T04:34:55.246Z,2.4516
2023-04-15T04:35:55.778Z,4.4253
2023-04-15T04:36:56.353Z,1.4949
2023-04-15T04:37:56.907Z,4.1245
2023-04-15T04:38:57.441Z,2.9897
2023-04-15T04:39:57.957Z,4.6654
2023-04-15T04:40:58.463Z,3.3504
2023-04-15T04:41:59.244Z,3.8741
2023-04-15T04:42:59.807Z,7.2332
2023-04-15T04:44:00.353Z,6.6353
2023-04-15T04:45:00.892Z,5.7399
2023-04-15T04:46:01.481Z,4.3654
2023-04-15T04:47:02.072Z,2.2710
2023-04-15T04:48:02.759Z,1.7928
2023-04-15T04:49:03.770Z,1.4231
2023-04-15T04:50:04.359Z,4.7121
2023-04-15T04:51:04.910Z,4.6624
2023-04-15T04:52:05.444Z,4.1852
2023-04-15T04:53:05.974Z,1.3161
2023-04-15T04:54:06.787Z,3.5721
2023-04-15T04:55:07.337Z,3.8273
2023-04-15T04:56:07.872Z,4.7827
2023-04-15T04:57:08.423Z,5.0813
2023-04-15T04:58:09.008Z,3.6480
2023-04-15T04:59:09.557Z,4.6622
2023-04-15T05:00:10.142Z,3.4670
2023-04-15T05:01:10.781Z,2.8092
2023-04-15T05:02:11.341Z,2.6287
2023-04-15T05:03:12.148Z,2.2699
2023-04-15T05:04:13.182Z,4.6151
2023-04-15T05:05:13.768Z,2.9236
2023-04-15T05:06:14.320Z,4.1247
2023-04-15T05:07:14.898Z,3.7050
2023-04-15T05:08:15.507Z,2.5098
2023-04-15T05:09:16.378Z,2.1998
2023-04-15T05:10:16.957Z,4.4823
2023-04-15T05:11:17.467Z,4.9022
2023-04-15T05:12:17.988Z,5.5637
2023-04-15T05:13:18.545Z,2.2130
2023-04-15T05:14:19.138Z,3.2867
2023-04-15T05:15:19.679Z,1.2549
2023-04-15T05:16:20.295Z,2.1525
2023-04-15T05:17:20.903Z,1.9120
2023-04-15T05:18:21.447Z,0.8961
2023-04-15T05:19:22.012Z,0.5977
2023-04-15T05:20:22.547Z,2.9886
2023-04-15T05:21:23.079Z,5.0843
2023-04-15T05:22:23.634Z,5.4405
2023-04-15T05:23:24.517Z,4.8190
2023-04-15T05:24:25.066Z,5.8002
2023-04-15T05:25:25.584Z,3.9459
2023-04-15T05:26:26.143Z,4.1868
2023-04-15T05:27:26.725Z,3.3455
2023-04-15T05:28:27.271Z,4.7245
2023-04-15T05:29:27.817Z,6.5164
2023-04-15T05:30:28.348Z,6.0397
2023-04-15T05:31:29.209Z,5.5989
2023-04-15T05:32:29.840Z,5.1911
2023-04-15T05:33:30.416Z,5.3756
2023-04-15T05:34:31.035Z,4.1821
2023-04-15T05:35:31.603Z,4.0629
2023-04-15T05:36:32.189Z,1.7333
2023-04-15T05:37:32.764Z,2.9879
2023-04-15T05:38:33.556Z,5.6548
2023-04-15T05:39:34.163Z,3.8259
2023-04-15T05:40:34.755Z,5.3168
2023-04-15T05:41:35.336Z,5.5569
2023-04-15T05:42:35.899Z,3.2274
2023-04-15T05:43:36.521Z,0.7766
2023-04-15T05:44:37.153Z,4.0030
2023-04-15T05:45:37.729Z,5.4920
2023-04-15T05:46:38.583Z,4.7716
2023-04-15T05:47:39.259Z,3.4555
2023-04-15T05:48:39.895Z,2.1466
2023-04-15T05:49:40.492Z,3.1083
2023-04-15T05:50:41.071Z,2.4495
2023-04-15T05:51:41.733Z,5.6775
2023-04-15T05:52:42.277Z,5.6109
2023-04-15T05:53:42.851Z,5.7987
2023-04-15T05:54:43.438Z,4.3626
2023-04-15T05:55:44.040Z,5.9167
2023-04-15T05:56:44.617Z,5.3752
2023-04-15T05:57:45.227Z,6.4547
2023-04-15T05:58:46.017Z,5.8923
2023-04-15T05:59:46.562Z,4.4841
2023-04-15T06:00:47.149Z,4.7209
2023-04-15T06:01:47.981Z,5.1216
2023-04-15T06:02:48.661Z,4.9002
2023-04-15T06:03:49.445Z,4.6426
2023-04-15T06:04:50.186Z,6.6189
2023-04-15T06:05:50.688Z,5.9095
2023-04-15T06:06:51.256Z,3.9462
2023-04-15T06:07:51.823Z,5.9773
2023-04-15T06:08:52.458Z,6.0935
2023-04-15T06:09:53.040Z,4.8389
2023-04-15T06:10:53.622Z,4.3015
2023-04-15T06:11:54.310Z,4.0044
2023-04-15T06:12:54.838Z,3.5816
2023-04-15T06:13:55.414Z,1.3742
2023-04-15T06:14:56.022Z,0.5380
2023-04-15T06:15:56.605Z,1.9708
2023-04-15T06:16:57.247Z,3.7048
2023-04-15T06:17:57.830Z,2.2699
2023-04-15T06:18:58.436Z,3.2254
2023-04-15T06:19:59.016Z,4.0628
2023-04-15T06:20:59.622Z,4.4798
2023-04-15T06:22:00.228Z,4.0036
2023-04-15T06:23:00.823Z,5.0792
2023-04-15T06:24:01.473Z,3.2837
2023-04-15T06:25:02.116Z,5.1940
2023-04-15T06:26:02.712Z,4.7742
2023-04-15T06:27:03.312Z,3.6454
2023-04-15T06:28:03.898Z,3.7047
2023-04-15T06:29:04.483Z,4.0613
2023-04-15T06:30:05.088Z,3.3478
2023-04-15T06:31:07.269Z,2.6188
2023-04-15T06:32:07.827Z,4.0047
2023-04-15T06:33:08.467Z,0.7170
2023-04-15T06:34:09.105Z,0.0000
2023-04-15T06:35:09.698Z,1.1347
2023-04-15T06:36:10.355Z,3.8832
2023-04-15T06:37:10.904Z,4.0594
2023-04-15T06:38:11.503Z,2.9880
2023-04-15T06:39:12.079Z,2.3898
2023-04-15T06:40:12.675Z,0.7770
2023-04-15T06:41:13.256Z,3.3449
2023-04-15T06:42:13.848Z,1.9127
2023-04-15T06:43:14.477Z,1.0753
2023-04-15T06:44:15.080Z,0.7169
2023-04-15T06:45:15.701Z,0.6568
2023-04-15T06:46:16.368Z,1.3135
2023-04-15T06:47:17.017Z,0.1193
2023-04-15T06:48:17.629Z,2.0309
2023-04-15T06:49:18.237Z,2.0907
2023-04-15T06:50:18.866Z,2.6875
2023-04-15T06:51:19.457Z,0.4777
2023-04-15T06:52:20.074Z,2.8077
2023-04-15T06:53:20.624Z,2.3904
2023-04-15T06:54:21.234Z,0.9561
2023-04-15T06:55:21.828Z,0.1792
2023-04-15T06:56:22.408Z,1.8526
2023-04-15T06:57:23.017Z,1.3137
2023-04-15T06:58:23.571Z,2.4505
2023-04-15T06:59:24.145Z,2.8094
2023-04-15T07:00:24.779Z,1.8524
2023-04-15T07:01:25.390Z,1.6720
2023-04-15T07:02:26.127Z,4.3603
2023-04-15T07:03:26.731Z,2.2641
2023-04-15T07:04:27.335Z,3.3464
2023-04-15T07:05:27.985Z,2.0291
2023-04-15T07:06:28.625Z,0.1792
2023-04-15T07:07:29.191Z,2.8072
2023-04-15T07:08:30.025Z,2.8588
2023-04-15T07:09:30.595Z,0.5374
2023-04-15T07:10:31.190Z,2.1521
2023-04-15T07:11:31.789Z,0.5376
2023-04-15T07:12:32.365Z,1.5531
2023-04-15T07:13:32.936Z,0.5978
2023-04-15T07:14:33.520Z,0.0000
2023-04-15T07:15:34.123Z,0.1792
2023-04-15T07:16:34.770Z,0.8964
2023-04-15T07:17:35.411Z,2.4463
2023-04-15T07:18:35.993Z,5.0166
2023-04-15T07:19:36.590Z,2.4506
2023-04-15T07:20:37.232Z,3.1063
2023-04-15T07:21:38.928Z,3.8817
2023-04-15T07:22:40.522Z,3.8656
2023-04-15T07:23:41.347Z,1.4289
2023-04-15T07:24:41.922Z,3.1657
2023-04-15T07:25:42.541Z,2.8702
2023-04-15T07:26:43.105Z,1.9110
2023-04-15T07:27:43.691Z,2.0918
2023-04-15T07:28:44.307Z,3.4652
2023-04-15T07:29:44.902Z,4.7193
2023-04-15T07:30:45.499Z,4.2436
2023-04-15T07:31:46.119Z,5.9741
2023-04-15T07:32:46.758Z,5.5498
2023-04-15T07:33:47.303Z,2.4496
2023-04-15T07:34:47.908Z,5.7968
2023-04-15T07:35:48.530Z,4.4188
2023-04-15T07:36:49.116Z,6.5105
2023-04-15T07:37:49.912Z,4.1094
2023-04-15T07:38:50.495Z,3.7647
2023-04-15T07:39:51.124Z,6.0350
2023-04-15T07:40:51.865Z,10.0676
2023-04-15T07:41:52.438Z,11.8875
2023-04-15T07:42:53.009Z,10.6395
2023-04-15T07:43:53.685Z,8.6659
2023-04-15T07:44:54.259Z,10.0280
2023-04-15T07:45:55.114Z,7.9720
2023-04-15T07:46:55.659Z,8.1289
2023-04-15T07:47:56.381Z,9.0803
2023-04-15T07:48:56.986Z,6.2630
2023-04-15T07:49:57.616Z,8.6604
2023-04-15T07:50:58.226Z,8.6579
2023-04-15T07:51:58.826Z,10.2817
2023-04-15T07:52:59.665Z,10.6497
2023-04-15T07:54:00.241Z,8.8986
2023-04-15T07:55:00.874Z,6.9302
2023-04-15T07:56:01.733Z,8.2075
2023-04-15T07:57:02.330Z,7.5868
2023-04-15T07:58:03.041Z,3.9419
2023-04-15T07:59:03.805Z,5.1254
2023-04-15T08:00:04.566Z,2.0818
2023-04-15T08:01:05.171Z,5.0732
2023-04-15T08:02:05.932Z,6.2755
2023-04-15T08:03:06.573Z,2.3232
2023-04-15T08:04:07.377Z,9.7236
2023-04-15T08:05:07.982Z,9.7712
2023-04-15T08:06:08.577Z,15.2380
2023-04-15T08:07:09.157Z,6.1534
2023-04-15T08:08:09.751Z,8.9614
2023-04-15T08:09:10.357Z,6.8713
2023-04-15T08:10:11.112Z,6.1365
2023-04-15T08:11:11.921Z,6.9893
2023-04-15T08:12:12.505Z,3.5718
2023-04-15T08:13:13.106Z,2.9287
2023-04-15T08:14:13.689Z,2.3901
2023-04-15T08:15:14.296Z,4.4804
2023-04-15T08:16:14.866Z,0.9564
2023-04-15T08:17:15.627Z,2.9274
2023-04-15T08:18:16.277Z,1.7256
2023-04-15T08:19:16.872Z,4.9004
2023-04-15T08:20:17.503Z,8.5413
2023-04-15T08:21:18.165Z,11.4024
2023-04-15T08:22:20.105Z,7.8217
2023-04-15T08:23:22.175Z,7.3775
2023-04-15T08:24:22.818Z,6.1363
2023-04-15T08:25:23.430Z,6.2109
2023-04-15T08:26:24.022Z,3.0461
2023-04-15T08:27:24.608Z,2.6296
2023-04-15T08:28:25.199Z,5.3788
2023-04-15T08:29:25.838Z,0.6569
2023-04-15T08:30:26.666Z,0.0000
2023-04-15T08:31:27.403Z,0.0597
2023-04-15T08:32:27.985Z,1.5511
2023-04-15T08:33:28.904Z,1.5459
2023-04-15T08:34:29.484Z,2.0298
2023-04-15T08:35:30.158Z,1.2549
2023-04-15T08:36:30.759Z,0.0597
2023-04-15T08:37:31.551Z,0.5355
2023-04-15T08:38:32.167Z,0.0000
2023-04-15T08:39:32.835Z,0.4777
2023-04-15T08:40:33.689Z,1.3675
2023-04-15T08:41:34.275Z,2.5695
2023-04-15T08:42:34.901Z,2.2090
2023-04-15T08:43:35.526Z,1.6127
2023-04-15T08:44:36.102Z,1.4936
2023-04-15T08:45:36.692Z,0.0000
2023-04-15T08:46:37.371Z,0.0000
2023-04-15T08:47:38.204Z,0.0000
2023-04-15T08:48:38.817Z,0.0000
2023-04-15T08:49:39.481Z,0.0000
2023-04-15T08:50:40.124Z,0.0000
2023-04-15T08:51:40.731Z,1.3722
2023-04-15T08:52:41.555Z,1.3091
2023-04-15T08:53:42.179Z,0.8364
2023-04-15T08:54:42.779Z,0.1792
2023-04-15T08:55:43.567Z,0.0595
2023-04-15T08:56:44.379Z,1.0759
2023-04-15T08:57:44.953Z,0.4167
2023-04-15T08:58:45.508Z,0.0000
2023-04-15T08:59:46.086Z,0.0000
2023-04-15T09:00:46.760Z,0.0000
2023-04-15T09:01:47.445Z,0.0597
2023-04-15T09:02:48.152Z,0.3582
2023-04-15T09:03:48.852Z,0.3576
2023-04-15T09:04:49.537Z,1.8471
2023-04-15T09:05:51.461Z,2.2104
2023-04-15T09:06:50.227Z,1.0847
2023-04-15T09:07:50.858Z,1.3735
2023-04-15T09:08:51.385Z,2.4510
2023-04-15T09:09:51.949Z,0.5378
2023-04-15T09:10:52.559Z,3.4662
2023-04-15T09:11:53.158Z,1.8517
2023-04-15T09:12:53.769Z,1.4334
2023-04-15T09:13:54.357Z,0.8963
2023-04-15T09:14:54.932Z,0.8963
2023-04-15T09:15:55.497Z,1.7326
2023-04-15T09:16:56.106Z,1.3154
2023-04-15T09:17:56.715Z,1.2544
2023-04-15T09:18:57.326Z,3.2243
2023-04-15T09:19:57.908Z,2.8081
2023-04-15T09:20:58.490Z,4.1830
2023-04-15T09:21:59.414Z,3.1067
2023-04-15T09:23:00.440Z,0.1774
2023-04-15T09:24:01.403Z,0.1194
2023-04-15T09:25:02.437Z,1.7668
2023-04-15T09:26:03.052Z,0.8366
2023-04-15T09:27:03.680Z,0.2391
2023-04-15T09:28:04.494Z,0.4162
2023-04-15T09:29:05.101Z,0.0000
2023-04-15T09:30:05.668Z,1.6724
2023-04-15T09:31:06.283Z,3.8842
2023-04-15T09:32:06.869Z,1.0160
2023-04-15T09:33:07.511Z,0.0000
2023-04-15T09:34:08.056Z,0.0597
2023-04-15T09:35:08.893Z,1.6137
2023-04-15T09:36:09.587Z,0.4165
2023-04-15T09:37:10.543Z,0.0000
2023-04-15T09:38:11.113Z,0.0594
2023-04-15T09:39:11.680Z,0.1195
2023-04-15T09:40:12.269Z,3.0479
2023-04-15T09:41:12.842Z,0.2988
2023-04-15T09:42:13.427Z,0.4183
2023-04-15T09:43:14.032Z,0.2390
2023-04-15T09:44:14.582Z,1.1952
2023-04-15T09:45:15.200Z,0.6575
2023-04-15T09:46:15.793Z,1.2548
2023-04-15T09:47:16.672Z,0.7726
2023-04-15T09:48:17.299Z,0.3585
2023-04-15T09:49:17.973Z,1.8501
2023-04-15T09:50:18.551Z,2.3885
2023-04-15T09:51:19.213Z,0.5375
2023-04-15T09:52:19.794Z,0.0000
2023-04-15T09:53:20.387Z,0.0597
2023-04-15T09:54:20.974Z,0.2987
2023-04-15T09:55:21.552Z,1.8529
2023-04-15T09:56:22.138Z,6.6920
2023-04-15T09:57:22.693Z,3.8846
2023-04-15T09:58:23.278Z,1.0159
2023-04-15T09:59:23.844Z,2.9282
2023-04-15T10:00:24.985Z,0.4185
2023-04-15T10:01:25.565Z,1.1249
2023-04-15T10:02:26.287Z,0.6571
2023-04-15T10:03:27.000Z,0.0000
2023-04-15T10:04:27.958Z,0.3558
2023-04-15T10:05:29.775Z,1.0747
2023-04-15T10:06:30.777Z,3.5480
2023-04-15T10:07:31.349Z,2.9278
2023-04-15T10:08:31.958Z,3.9430
2023-04-15T10:09:32.553Z,3.1663
2023-04-15T10:10:33.133Z,3.8842
2023-04-15T10:11:33.692Z,4.9005
2023-04-15T10:12:34.315Z,6.4553
2023-04-15T10:13:34.877Z,3.4651
2023-04-15T10:14:35.506Z,1.8519
2023-04-15T10:15:36.090Z,1.5529
2023-04-15T10:16:36.634Z,2.9288
2023-04-15T10:17:37.461Z,2.9180
2023-04-15T10:18:38.150Z,2.2110
2023-04-15T10:19:38.771Z,3.2216
2023-04-15T10:20:39.365Z,4.8950
2023-04-15T10:21:39.949Z,4.5413
2023-04-15T10:22:40.757Z,3.9432
2023-04-15T10:23:41.280Z,1.1914
2023-04-15T10:25:44.935Z,4.1240
2023-04-15T10:26:45.556Z,5.6754
2023-04-15T10:27:46.122Z,3.2263
2023-04-15T10:28:46.710Z,3.8248
2023-04-15T10:29:47.299Z,2.6882
2023-04-15T10:30:47.880Z,7.5915
2023-04-15T10:31:48.576Z,4.5411
2023-04-15T10:32:49.169Z,6.6208
2023-04-15T10:33:49.733Z,2.9871
2023-04-15T10:34:51.071Z,3.3474
2023-04-15T10:35:52.414Z,7.2263
2023-04-15T10:36:52.978Z,5.6207
2023-04-15T10:37:53.552Z,7.7096
2023-04-15T10:38:54.132Z,10.5191
2023-04-15T10:39:54.910Z,12.6218
2023-04-15T10:40:55.514Z,8.6052
2023-04-15T10:41:56.167Z,6.6934
2023-04-15T10:42:56.725Z,4.8373
2023-04-15T10:43:57.295Z,4.9587
2023-04-15T10:44:57.868Z,7.3530
2023-04-15T10:45:58.445Z,5.5564
2023-04-15T10:46:59.277Z,4.1101
2023-04-15T10:48:01.596Z,4.7207
2023-04-15T10:49:00.359Z,5.7396
2023-04-15T10:50:00.985Z,9.5608
2023-04-15T10:51:01.591Z,9.3810
2023-04-15T10:52:02.167Z,12.0053
2023-04-15T10:53:02.726Z,9.8607
2023-04-15T10:54:03.536Z,10.3587
2023-04-15T10:55:04.114Z,10.3359
2023-04-15T10:56:04.682Z,9.8667
2023-04-15T10:57:05.250Z,9.6804
2023-04-15T10:58:05.866Z,8.9054
2023-04-15T10:59:06.431Z,8.5414
2023-04-15T11:00:07.001Z,8.7288
2023-04-15T11:01:07.616Z,4.8386
2023-04-15T11:02:08.479Z,6.7265
2023-04-15T11:03:09.518Z,7.9824
2023-04-15T11:04:10.543Z,13.2257
2023-04-15T11:05:11.097Z,12.3040
2023-04-15T11:06:11.669Z,15.0009
2023-04-15T11:07:12.257Z,8.4286
2023-04-15T11:08:12.868Z,11.4742
2023-04-15T11:09:13.690Z,10.6479
2023-04-15T11:10:14.279Z,6.2728
2023-04-15T11:11:14.831Z,4.7820
2023-04-15T11:12:15.445Z,5.9752
2023-04-15T11:13:16.062Z,9.8563
2023-04-15T11:14:16.632Z,9.6774
2023-04-15T11:15:17.199Z,4.2448
2023-04-15T11:16:17.820Z,3.5853
2023-04-15T11:17:18.698Z,4.0404
2023-04-15T11:18:19.297Z,6.5149
2023-04-15T11:19:19.908Z,7.7664
2023-04-15T11:20:20.499Z,13.0149
2023-04-15T11:21:21.088Z,10.5825
2023-04-15T11:22:21.666Z,7.8837
2023-04-15T11:23:22.534Z,6.9937
2023-04-15T11:24:23.318Z,9.7817
2023-04-15T11:25:24.043Z,7.3343
2023-04-15T11:26:24.697Z,12.0107
2023-04-15T11:27:25.293Z,15.5122
2023-04-15T11:28:25.856Z,7.2320
2023-04-15T11:29:26.465Z,11.8283
2023-04-15T11:30:27.080Z,9.8605
2023-04-15T11:31:27.701Z,7.6481
2023-04-15T11:32:28.282Z,6.9869
2023-04-15T11:33:28.911Z,12.7757
2023-04-15T11:34:29.493Z,21.0219
2023-04-15T11:35:30.084Z,18.5865
2023-04-15T11:36:30.645Z,12.3111
2023-04-15T11:37:31.252Z,15.4223
2023-04-15T11:38:31.834Z,12.4826
2023-04-15T11:39:32.429Z,12.3107
2023-04-15T11:40:32.980Z,11.2346
2023-04-15T11:41:33.579Z,12.0726
2023-04-15T11:42:48.741Z,12.4826
2023-04-15T11:43:37.148Z,10.6441
2023-04-15T11:44:37.735Z,11.7618
2023-04-15T11:45:38.340Z,11.6570
2023-04-15T11:46:38.912Z,9.1402
2023-04-15T11:47:39.509Z,9.8568
2023-04-15T11:48:40.113Z,14.1070
2023-04-15T11:49:40.953Z,12.9626
2023-04-15T11:50:41.559Z,14.6464
2023-04-15T11:51:42.099Z,14.2202
2023-04-15T11:52:42.656Z,15.5390
2023-04-15T11:53:43.281Z,8.5477
2023-04-15T11:54:43.873Z,7.1667
2023-04-15T11:55:44.683Z,4.8986
2023-04-15T11:56:45.244Z,3.8103
2023-04-15T11:57:45.839Z,4.4231
2023-04-15T11:58:46.572Z,9.1402
2023-04-15T11:59:47.220Z,7.6217
2023-04-15T12:00:47.878Z,11.0484
2023-04-15T12:01:48.711Z,16.2423
2023-04-15T12:02:49.360Z,14.9955
2023-04-15T12:03:50.545Z,12.5688
2023-04-15T12:04:51.360Z,8.4487
2023-04-15T12:05:51.976Z,11.1056
2023-04-15T12:06:52.585Z,10.5113
2023-04-15T12:07:53.210Z,9.8558
2023-04-15T12:08:53.816Z,8.9580
2023-04-15T12:09:54.443Z,4.5393
2023-04-15T12:10:55.070Z,4.8372
2023-04-15T12:11:55.664Z,8.4200
2023-04-15T12:12:56.284Z,12.3660
2023-04-15T12:13:56.885Z,13.6759
2023-04-15T12:14:57.541Z,11.9982
2023-04-15T12:15:58.186Z,10.8723
2023-04-15T12:16:58.813Z,7.5238
2023-04-15T12:17:59.743Z,8.7334
2023-04-15T12:19:02.342Z,18.0409
2023-04-15T12:20:02.993Z,15.0366
2023-04-15T12:21:03.587Z,10.5715
2023-04-15T12:22:04.212Z,4.4213
2023-04-15T12:23:04.807Z,8.5379
2023-04-15T12:24:05.687Z,10.3350
2023-04-15T12:25:06.438Z,6.3476
2023-04-15T12:26:07.055Z,4.6583
2023-04-15T12:27:07.826Z,14.2637
2023-04-15T12:28:08.439Z,9.2434
2023-04-15T12:29:09.074Z,15.8845
2023-04-15T12:30:09.691Z,7.5835
2023-04-15T12:31:10.338Z,5.7944
2023-04-15T12:32:10.924Z,6.8662
2023-04-15T12:33:11.541Z,9.6771
2023-04-15T12:34:12.156Z,14.1546
2023-04-15T12:35:12.786Z,10.3899
2023-04-15T12:36:13.413Z,7.8215
2023-04-15T12:37:14.015Z,10.4538
2023-04-15T12:38:14.634Z,9.1986
2023-04-15T12:39:15.263Z,9.4364
2023-04-15T12:40:15.891Z,7.6414
2023-04-15T12:41:16.701Z,8.8676
2023-04-15T12:42:17.356Z,10.2132
2023-04-15T12:43:17.951Z,6.5076